createdAt,value
2023-01-04T00:02:42.051Z,3.27
2023-01-04T00:06:44.380Z,3.07
2023-01-04T00:10:46.526Z,3.10
2023-01-04T00:14:48.660Z,3.00
2023-01-04T00:18:51.665Z,3.20
2023-01-04T00:22:53.833Z,3.23
2023-01-04T00:26:55.990Z,3.10
2023-01-04T00:31:02.279Z,3.40
2023-01-04T00:35:04.484Z,2.97
2023-01-04T00:39:06.682Z,2.93
2023-01-04T00:43:08.860Z,3.30
2023-01-04T00:47:11.028Z,2.40
2023-01-04T00:51:13.137Z,2.70
2023-01-04T00:55:15.363Z,2.83
2023-01-04T00:59:18.980Z,3.10
2023-01-04T01:03:21.261Z,3.07
2023-01-04T01:07:23.663Z,2.67
2023-01-04T01:11:25.898Z,2.50
2023-01-04T01:15:28.008Z,3.17
2023-01-04T01:19:30.193Z,2.77
2023-01-04T01:23:32.334Z,2.40
2023-01-04T01:27:34.512Z,2.50
2023-01-04T01:31:36.756Z,2.57
2023-01-04T01:35:38.969Z,2.23
2023-01-04T01:39:41.149Z,2.60
2023-01-04T01:43:55.614Z,2.50
2023-01-04T01:48:04.439Z,2.87
2023-01-04T01:52:09.736Z,2.03
2023-01-04T01:56:11.897Z,2.57
2023-01-04T02:00:15.862Z,2.17
2023-01-04T02:04:18.077Z,2.30
2023-01-04T02:08:21.977Z,1.97
2023-01-04T02:12:24.198Z,2.33
2023-01-04T02:16:29.473Z,1.97
2023-01-04T02:20:31.644Z,2.87
2023-01-04T02:24:42.680Z,2.27
2023-01-04T02:29:03.439Z,2.20
2023-01-04T02:33:14.625Z,2.30
2023-01-04T02:37:24.832Z,3.93
2023-01-04T02:41:30.096Z,2.33
2023-01-04T02:45:35.623Z,2.30
2023-01-04T02:49:37.841Z,2.10
2023-01-04T02:53:41.809Z,1.93
2023-01-04T02:57:43.976Z,2.17
2023-01-04T03:01:52.963Z,1.77
2023-01-04T03:05:55.188Z,1.93
2023-01-04T03:10:03.316Z,2.00
2023-01-04T03:14:31.933Z,2.00
2023-01-04T03:18:42.177Z,2.10
2023-01-04T03:22:46.643Z,2.23
2023-01-04T03:26:51.123Z,2.03
2023-01-04T03:30:58.903Z,2.20
2023-01-04T03:35:01.309Z,1.50
2023-01-04T03:39:23.775Z,1.90
2023-01-04T03:43:33.265Z,2.60
2023-01-04T03:47:55.668Z,2.00
2023-01-04T03:51:59.497Z,2.10
2023-01-04T03:56:03.059Z,2.30
2023-01-04T04:00:10.516Z,2.33
2023-01-04T04:04:12.828Z,1.90
2023-01-04T04:08:15.055Z,1.93
2023-01-04T04:12:17.229Z,2.10
2023-01-04T04:16:19.463Z,2.20
2023-01-04T04:20:21.747Z,2.03
2023-01-04T04:24:26.391Z,1.90
2023-01-04T04:28:28.630Z,1.90
2023-01-04T04:32:30.802Z,2.40
2023-01-04T04:36:32.951Z,1.80
2023-01-04T04:40:35.154Z,2.07
2023-01-04T04:44:37.349Z,1.83
2023-01-04T04:48:39.474Z,2.00
2023-01-04T04:52:41.623Z,2.00
2023-01-04T04:56:43.952Z,1.93
2023-01-04T05:00:46.205Z,1.80
2023-01-04T05:04:48.397Z,1.70
2023-01-04T05:08:50.707Z,2.03
2023-01-04T05:12:57.664Z,1.80
2023-01-04T05:17:00.289Z,1.90
2023-01-04T05:21:02.858Z,1.77
2023-01-04T05:25:05.221Z,1.80
2023-01-04T05:29:07.541Z,2.03
2023-01-04T05:33:09.776Z,1.67
2023-01-04T05:37:11.939Z,1.80
2023-01-04T05:41:14.150Z,1.80
2023-01-04T05:45:16.677Z,1.80
2023-01-04T05:49:18.778Z,1.77
2023-01-04T05:53:20.987Z,1.70
2023-01-04T05:57:23.212Z,1.93
2023-01-04T06:01:25.428Z,2.10
2023-01-04T06:05:27.637Z,1.83
2023-01-04T06:09:29.823Z,1.73
2023-01-04T06:13:32.000Z,2.83
2023-01-04T06:17:34.738Z,2.40
2023-01-04T06:21:36.892Z,2.20
2023-01-04T06:25:39.137Z,3.07
2023-01-04T06:29:41.335Z,2.20
2023-01-04T06:33:43.500Z,2.83
2023-01-04T06:37:45.667Z,1.70
2023-01-04T06:41:47.844Z,2.00
2023-01-04T06:45:50.334Z,1.67
2023-01-04T06:49:52.563Z,1.47
2023-01-04T06:53:54.746Z,1.40
2023-01-04T06:57:59.593Z,1.40
2023-01-04T07:02:02.193Z,1.67
2023-01-04T07:06:05.216Z,1.60
2023-01-04T07:10:09.936Z,1.33
2023-01-04T07:14:12.410Z,1.10
2023-01-04T07:18:14.539Z,1.07
2023-01-04T07:22:16.879Z,1.10
2023-01-04T07:26:19.079Z,1.10
2023-01-04T07:30:22.387Z,1.20
2023-01-04T07:34:25.692Z,0.77
2023-01-04T07:38:27.907Z,1.30
2023-01-04T07:42:30.186Z,1.20
2023-01-04T07:46:33.189Z,1.67
2023-01-04T07:50:35.399Z,1.10
2023-01-04T07:54:37.556Z,1.13
2023-01-04T07:58:39.757Z,0.80
2023-01-04T08:02:42.008Z,1.30
2023-01-04T08:06:44.627Z,1.07
2023-01-04T08:10:46.763Z,1.30
2023-01-04T08:14:49.037Z,0.93
2023-01-04T08:18:57.512Z,0.90
2023-01-04T08:22:59.721Z,1.13
2023-01-04T08:27:01.903Z,1.10
2023-01-04T08:31:08.926Z,1.17
2023-01-04T08:35:11.116Z,0.80
2023-01-04T08:39:13.280Z,1.00
2023-01-04T08:43:15.445Z,1.00
2023-01-04T08:47:17.592Z,1.20
2023-01-04T08:51:19.801Z,1.07
2023-01-04T08:55:23.670Z,0.90
2023-01-04T08:59:26.057Z,1.20
2023-01-04T09:03:28.544Z,1.30
2023-01-04T09:07:31.238Z,1.30
2023-01-04T09:11:33.399Z,1.30
2023-01-04T09:15:35.604Z,1.10
2023-01-04T09:19:37.743Z,1.20
2023-01-04T09:23:40.473Z,1.13
2023-01-04T09:27:42.561Z,1.20
2023-01-04T09:31:44.792Z,1.00
2023-01-04T09:35:47.031Z,1.37
2023-01-04T09:39:49.245Z,1.13
2023-01-04T09:43:51.377Z,1.10
2023-01-04T09:47:53.482Z,1.00
2023-01-04T09:52:06.011Z,0.80
2023-01-04T09:56:31.473Z,1.10
2023-01-04T10:00:41.862Z,1.07
2023-01-04T10:04:47.414Z,1.30
2023-01-04T10:08:49.687Z,0.70
2023-01-04T10:13:10.438Z,1.23
2023-01-04T10:17:23.558Z,1.00
2023-01-04T10:21:36.974Z,0.97
2023-01-04T10:25:51.213Z,1.33
2023-01-04T10:29:59.884Z,1.17
2023-01-04T10:34:23.668Z,1.27
2023-01-04T10:38:31.047Z,1.30
2023-01-04T10:42:35.097Z,1.50
2023-01-04T10:46:49.554Z,1.30
2023-01-04T10:50:56.305Z,1.40
2023-01-04T10:55:07.752Z,1.00
2023-01-04T10:59:12.664Z,1.23
2023-01-04T11:03:35.767Z,1.03
2023-01-04T11:07:40.563Z,1.30
2023-01-04T11:11:43.790Z,0.93
2023-01-04T11:15:46.120Z,1.50
2023-01-04T11:19:48.500Z,1.00
2023-01-04T11:23:50.733Z,1.37
2023-01-04T11:27:55.222Z,1.10
2023-01-04T11:31:59.153Z,1.40
2023-01-04T11:36:01.370Z,1.30
2023-01-04T11:40:29.930Z,1.33
2023-01-04T11:44:33.227Z,1.07
2023-01-04T11:48:45.634Z,1.37
2023-01-04T11:52:47.781Z,1.10
2023-01-04T11:57:11.408Z,1.13
2023-01-04T12:01:24.805Z,1.13
2023-01-04T12:05:30.383Z,1.17
2023-01-04T12:09:33.275Z,0.83
2023-01-04T12:13:35.593Z,1.00
2023-01-04T12:17:41.387Z,1.07
2023-01-04T12:21:46.558Z,1.10
2023-01-04T12:25:50.616Z,0.57
2023-01-04T12:29:59.020Z,1.20
2023-01-04T12:34:21.145Z,0.70
2023-01-04T12:38:43.267Z,1.07
2023-01-04T12:43:05.383Z,0.70
2023-01-04T12:47:16.660Z,0.70
2023-01-04T12:51:35.418Z,0.83
2023-01-04T12:55:42.100Z,0.67
2023-01-04T12:59:55.215Z,0.80
2023-01-04T13:04:05.455Z,0.67
2023-01-04T13:08:12.405Z,0.80
2023-01-04T13:12:30.998Z,0.90
2023-01-04T13:16:33.514Z,0.83
2023-01-04T13:20:37.821Z,0.70
2023-01-04T13:24:43.794Z,0.70
2023-01-04T13:28:45.963Z,0.50
2023-01-04T13:33:24.279Z,0.80
2023-01-04T13:37:13.355Z,0.53
2023-01-04T13:41:22.683Z,0.33
2023-01-04T13:45:37.425Z,0.70
2023-01-04T13:49:40.999Z,1.00
2023-01-04T13:53:43.610Z,0.57
2023-01-04T13:57:54.916Z,0.30
2023-01-04T14:01:57.212Z,0.73
2023-01-04T14:06:11.716Z,0.93
2023-01-04T14:10:17.096Z,0.43
2023-01-04T14:14:39.756Z,0.70
2023-01-04T14:18:42.117Z,0.50
2023-01-04T14:22:47.370Z,0.93
2023-01-04T14:26:49.572Z,0.50
2023-01-04T14:30:53.551Z,0.53
2023-01-04T14:34:55.875Z,0.93
2023-01-04T14:38:58.072Z,0.97
2023-01-04T14:43:00.270Z,0.30
2023-01-04T14:47:03.085Z,0.93
2023-01-04T14:51:05.828Z,0.80
2023-01-04T14:55:08.102Z,0.63
2023-01-04T14:59:10.325Z,0.40
2023-01-04T15:03:12.641Z,0.40
2023-01-04T15:07:34.498Z,0.70
2023-01-04T15:11:36.596Z,0.33
2023-01-04T15:15:38.747Z,0.63
2023-01-04T15:19:40.947Z,0.57
2023-01-04T15:23:43.145Z,0.87
2023-01-04T15:27:46.519Z,0.40
2023-01-04T15:31:48.686Z,1.00
2023-01-04T15:35:58.530Z,1.00
2023-01-04T15:40:03.175Z,0.87
2023-01-04T15:44:06.166Z,0.70
2023-01-04T15:48:08.987Z,0.60
2023-01-04T15:52:11.241Z,0.97
2023-01-04T15:56:13.445Z,0.70
2023-01-04T16:00:15.927Z,0.77
2023-01-04T16:04:18.070Z,0.60
2023-01-04T16:08:20.265Z,0.90
2023-01-04T16:12:22.380Z,0.70
2023-01-04T16:16:26.062Z,0.70
2023-01-04T16:20:28.229Z,0.47
2023-01-04T16:25:08.790Z,0.67
2023-01-04T16:28:53.416Z,0.50
2023-01-04T16:32:55.580Z,0.50
2023-01-04T16:36:57.758Z,0.37
2023-01-04T16:41:01.412Z,0.67
2023-01-04T16:45:03.631Z,0.37
2023-01-04T16:49:07.277Z,0.83
2023-01-04T16:53:09.433Z,0.70
2023-01-04T16:57:11.584Z,0.43
2023-01-04T17:01:15.068Z,0.57
2023-01-04T17:05:17.421Z,0.57
2023-01-04T17:09:21.040Z,0.63
2023-01-04T17:13:23.401Z,0.87
2023-01-04T17:17:25.604Z,0.77
2023-01-04T17:21:36.114Z,0.60
2023-01-04T17:25:38.402Z,0.33
2023-01-04T17:29:40.536Z,0.43
2023-01-04T17:33:42.792Z,0.60
2023-01-04T17:37:44.953Z,0.90
2023-01-04T17:41:47.141Z,0.87
2023-01-04T17:45:49.405Z,0.50
2023-01-04T17:49:51.581Z,0.23
2023-01-04T17:53:55.045Z,0.50
2023-01-04T17:57:57.823Z,0.43
2023-01-04T18:02:00.049Z,0.97
2023-01-04T18:06:25.493Z,0.50
2023-01-04T18:10:40.886Z,0.50
2023-01-04T18:14:46.677Z,0.60
2023-01-04T18:18:48.845Z,0.70
2023-01-04T18:22:51.021Z,0.30
2023-01-04T18:27:20.520Z,0.70
2023-01-04T18:31:16.881Z,0.50
2023-01-04T18:35:19.053Z,0.60
2023-01-04T18:39:21.337Z,0.80
2023-01-04T18:43:23.597Z,0.80
2023-01-04T18:47:25.797Z,0.57
2023-01-04T18:51:28.181Z,0.33
2023-01-04T18:55:30.359Z,0.63
2023-01-04T18:59:32.528Z,0.70
2023-01-04T19:03:36.913Z,0.43
2023-01-04T19:07:39.170Z,0.60
2023-01-04T19:11:41.354Z,0.57
2023-01-04T19:15:47.678Z,0.60
2023-01-04T19:19:50.122Z,0.60
2023-01-04T19:23:52.273Z,0.50
2023-01-04T19:27:54.415Z,0.57
2023-01-04T19:31:56.570Z,0.70
2023-01-04T19:35:58.737Z,0.50
2023-01-04T19:40:00.899Z,0.60
2023-01-04T19:44:03.408Z,0.40
2023-01-04T19:48:05.603Z,0.50
2023-01-04T19:52:07.818Z,0.40
2023-01-04T19:56:10.460Z,0.50
2023-01-04T20:00:12.989Z,0.53
2023-01-04T20:04:15.117Z,0.23
2023-01-04T20:08:17.248Z,0.30
2023-01-04T20:12:19.609Z,0.40
2023-01-04T20:16:21.831Z,0.37
2023-01-04T20:20:24.058Z,3.53
2023-01-04T20:24:26.238Z,0.63
2023-01-04T20:28:28.484Z,0.80
2023-01-04T20:32:30.662Z,2.50
2023-01-04T20:36:32.823Z,0.60
2023-01-04T20:40:36.770Z,0.90
2023-01-04T20:44:39.126Z,0.40
2023-01-04T20:48:42.008Z,1.20
2023-01-04T20:52:44.136Z,0.53
2023-01-04T20:56:46.305Z,0.50
2023-01-04T21:00:48.449Z,0.80
2023-01-04T21:04:50.599Z,0.73
2023-01-04T21:08:53.564Z,0.57
2023-01-04T21:12:55.742Z,0.50
2023-01-04T21:16:57.990Z,0.70
2023-01-04T21:21:04.513Z,0.70
2023-01-04T21:25:06.999Z,1.10
2023-01-04T21:29:09.286Z,1.00
2023-01-04T21:33:12.187Z,0.80
2023-01-04T21:37:14.379Z,0.43
2023-01-04T21:41:16.748Z,0.40
2023-01-04T21:45:19.003Z,0.70
2023-01-04T21:49:21.216Z,0.50
2023-01-04T21:53:23.443Z,0.30
2023-01-04T21:57:25.804Z,0.30
2023-01-04T22:01:34.572Z,0.80
2023-01-04T22:05:37.503Z,1.10
2023-01-04T22:09:39.769Z,0.70
2023-01-04T22:13:43.247Z,0.97
2023-01-04T22:17:45.461Z,0.80
2023-01-04T22:21:47.611Z,0.60
2023-01-04T22:25:49.768Z,0.80
2023-01-04T22:29:51.952Z,0.70
2023-01-04T22:33:54.154Z,0.80
2023-01-04T22:37:56.256Z,0.50
2023-01-04T22:41:58.412Z,1.03
2023-01-04T22:46:01.006Z,0.40
2023-01-04T22:50:06.069Z,0.70
2023-01-04T22:54:10.680Z,0.23
2023-01-04T22:58:12.884Z,0.30
2023-01-04T23:02:15.146Z,0.60
2023-01-04T23:06:17.326Z,0.13
2023-01-04T23:10:19.566Z,0.30
2023-01-04T23:14:21.709Z,1.93
2023-01-04T23:18:23.882Z,0.50
2023-01-04T23:22:26.037Z,1.90
2023-01-04T23:26:28.873Z,1.13
2023-01-04T23:30:31.010Z,0.80
2023-01-04T23:34:33.293Z,1.60
2023-01-04T23:38:35.430Z,1.00
2023-01-04T23:42:37.636Z,1.00
2023-01-04T23:46:39.883Z,0.70
2023-01-04T23:50:42.051Z,0.50
2023-01-04T23:54:44.202Z,0.70
2023-01-04T23:58:46.381Z,0.70
